Terminal Aerodrome Forecast
Issued by NWS El Paso, TX

Current Version | Previous Version | Text Only | Print | Product List | Glossary On
Versions: 1 2 3 4 5 6 7 8 9 10 11 12 13 14
000
FTUS44 KEPZ 221700
TAFELP
TAF
KELP 221723Z 2218/2318 26010KT P6SM FEW150 SCT250
     FM222100 28014G23KT P6SM FEW150 SCT250
     FM230500 31020G32KT P6SM SCT250
     FM231000 33014KT P6SM FEW160 SCT250
     FM231600 02012KT P6SM SCT080=

USA.gov is the U.S. government's official web portal to all federal, state and local government web resources and services.